Flight Number: EUR2114 Duration: 1:00
Departure: Budapest Ferihegy (LHBP) at 21:30 Distance: 306 Nm
Arrival: Munich Int'l (EDDM) at 22:30 Equipment: DHC8

Weather Information
Budapest / Ferihegy, Hungary (LHBP) 47-26N 019-16E 185M Feb 24, 2018 - 01:00 AM EST / 2018.02.24 0600 UTC
Wind: from the SSE (160 degrees) at 5 MPH (4 KT) (direction variable):0
Visibility: 4 mile(s):0
Sky conditions: overcast Temperature: 28 F (-2 C)
Windchill: 23 F (-5 C):1 Dew Point: 24 F (-4 C) Relative Humidity: 86% Pressure (altimeter): 30.06 in. Hg (1018 hPa)
ob: LHBP 240600Z 16004KT 110V190 8000 OVC015 M02/M04 Q1018 NOSIG cycle: 6
Sunrise: 05:35 Sunset: 16:17 (UTC)

Munchen, Germany (EDDM) 48-21N 011-47E Feb 24, 2018 - 12:50 AM EST / 2018.02.24 0550 UTC
Wind: from the ENE (070 degrees) at 12 MPH (10 KT):0
Visibility: greater than 7 mile(s):0
Sky conditions: partly cloudy Temperature: 23 F (-5 C)
Windchill: 12 F (-11 C):1 Dew Point: 17 F (-8 C) Relative Humidity: 79% Pressure (altimeter): 30.03 in. Hg (1017 hPa)
ob: EDDM 240550Z 07010KT 9999 SCT018 M05/M08 Q1017 NOSIG cycle: 6
Sunrise: 06:06 Sunset: 16:45 (UTC)

TAF:2018/02/24 06:27 TAF EDDM 240500Z 2406/2512 07012KT 9999 SCT020 BECMG 2407/2409 07015G25KT BECMG 2418/2420 07012KT

This route has never been flown.

Route map